createdAt,value
2017-11-03T00:02:01.313Z,79.70
2017-11-03T00:04:28.844Z,79.30
2017-11-03T00:06:56.321Z,79.80
2017-11-03T00:09:23.838Z,79.20
2017-11-03T00:11:52.051Z,80.20
2017-11-03T00:14:19.671Z,80.10
2017-11-03T00:16:47.182Z,80.00
2017-11-03T00:19:14.682Z,79.60
2017-11-03T00:21:42.138Z,79.70
2017-11-03T00:24:09.652Z,79.70
2017-11-03T00:26:37.151Z,79.60
2017-11-03T00:29:04.589Z,79.90
2017-11-03T00:31:32.108Z,80.20
2017-11-03T00:34:00.365Z,80.80
2017-11-03T00:36:27.904Z,80.80
2017-11-03T00:38:55.388Z,80.80
2017-11-03T00:41:22.855Z,80.90
2017-11-03T00:43:50.351Z,80.10
2017-11-03T00:46:17.886Z,80.80
2017-11-03T00:48:45.367Z,81.30
2017-11-03T00:51:13.572Z,81.50
2017-11-03T00:53:41.115Z,81.50
2017-11-03T00:56:08.588Z,81.30
2017-11-03T00:58:36.184Z,80.90
2017-11-03T01:01:03.650Z,80.90
2017-11-03T01:03:31.139Z,80.90
2017-11-03T01:05:58.626Z,80.90
2017-11-03T01:08:26.891Z,80.90
2017-11-03T01:10:55.133Z,80.90
2017-11-03T01:13:22.647Z,80.90
2017-11-03T01:15:50.168Z,80.90
2017-11-03T01:18:17.639Z,81.40
2017-11-03T01:20:45.132Z,81.70
2017-11-03T01:23:12.604Z,82.10
2017-11-03T01:25:40.872Z,82.10
2017-11-03T01:28:09.109Z,81.70
2017-11-03T01:30:36.604Z,81.70
2017-11-03T01:33:04.106Z,81.00
2017-11-03T01:35:31.558Z,81.20
2017-11-03T01:37:59.041Z,81.80
2017-11-03T01:40:26.517Z,81.80
2017-11-03T01:42:54.041Z,81.80
2017-11-03T01:45:22.313Z,81.90
2017-11-03T01:47:49.772Z,81.90
2017-11-03T01:50:18.048Z,81.50
2017-11-03T01:52:45.589Z,81.40
2017-11-03T01:55:13.087Z,82.30
2017-11-03T01:57:41.325Z,82.20
2017-11-03T02:00:08.845Z,82.20
2017-11-03T02:02:37.132Z,82.40
2017-11-03T02:05:05.354Z,83.10
2017-11-03T02:07:33.062Z,83.00
2017-11-03T02:10:01.315Z,82.30
2017-11-03T02:12:28.847Z,82.30
2017-11-03T02:14:56.327Z,82.00
2017-11-03T02:17:23.807Z,81.70
2017-11-03T02:19:52.803Z,82.00
2017-11-03T02:22:20.283Z,82.00
2017-11-03T02:24:48.694Z,82.00
2017-11-03T02:27:16.218Z,82.00
2017-11-03T02:29:43.661Z,82.50
2017-11-03T02:32:11.128Z,82.80
2017-11-03T02:34:38.635Z,82.80
2017-11-03T02:37:06.643Z,82.90
2017-11-03T02:39:34.240Z,83.10
2017-11-03T02:42:01.717Z,82.90
2017-11-03T02:44:29.975Z,83.30
2017-11-03T02:46:57.497Z,82.70
2017-11-03T02:49:24.965Z,82.40
2017-11-03T02:51:52.465Z,82.30
2017-11-03T02:54:19.962Z,81.90
2017-11-03T02:56:48.232Z,82.10
2017-11-03T02:59:15.734Z,82.10
2017-11-03T03:01:43.203Z,81.80
2017-11-03T03:04:10.839Z,81.70
2017-11-03T03:06:38.315Z,82.10
2017-11-03T03:09:05.842Z,81.20
2017-11-03T03:11:33.350Z,81.20
2017-11-03T03:14:00.874Z,81.50
2017-11-03T03:16:28.332Z,82.30
2017-11-03T03:18:56.645Z,83.30
2017-11-03T03:21:24.116Z,82.60
2017-11-03T03:23:51.600Z,83.10
2017-11-03T03:26:19.099Z,83.00
2017-11-03T03:28:46.565Z,83.10
2017-11-03T03:31:14.055Z,83.00
2017-11-03T03:33:42.279Z,83.10
2017-11-03T03:36:09.798Z,83.10
2017-11-03T03:38:37.294Z,83.10
2017-11-03T03:41:04.797Z,82.80
2017-11-03T03:43:33.046Z,82.80
2017-11-03T03:46:00.519Z,82.80
2017-11-03T03:48:28.050Z,82.60
2017-11-03T03:50:55.528Z,82.80
2017-11-03T03:53:22.979Z,82.70
2017-11-03T03:55:50.479Z,82.30
2017-11-03T03:58:17.946Z,82.10
2017-11-03T04:00:45.456Z,82.20
2017-11-03T04:03:12.912Z,82.10
2017-11-03T04:05:40.450Z,82.30
2017-11-03T04:08:08.774Z,82.40
2017-11-03T04:10:36.277Z,82.40
2017-11-03T04:13:03.745Z,82.60
2017-11-03T04:15:32.365Z,83.90
2017-11-03T04:17:59.882Z,83.80
2017-11-03T04:20:27.336Z,83.90
2017-11-03T04:22:54.828Z,83.80
2017-11-03T04:25:23.113Z,83.80
2017-11-03T04:27:50.572Z,83.60
2017-11-03T04:30:18.902Z,83.80
2017-11-03T04:32:47.090Z,83.80
2017-11-03T04:35:14.557Z,83.80
2017-11-03T04:37:42.043Z,83.60
2017-11-03T04:40:09.492Z,83.40
2017-11-03T04:42:37.068Z,83.40
2017-11-03T04:45:04.603Z,83.10
2017-11-03T04:47:32.121Z,83.10
2017-11-03T04:50:00.412Z,82.60
2017-11-03T04:52:27.886Z,82.60
2017-11-03T04:54:55.355Z,83.00
2017-11-03T04:57:22.852Z,82.70
2017-11-03T04:59:50.356Z,82.50
2017-11-03T05:02:17.818Z,82.50
2017-11-03T05:04:45.276Z,82.30
2017-11-03T05:07:13.505Z,82.50
2017-11-03T05:09:40.998Z,82.50
2017-11-03T05:12:08.459Z,83.00
2017-11-03T05:14:35.924Z,83.20
2017-11-03T05:17:04.192Z,83.90
2017-11-03T05:19:31.646Z,83.90
2017-11-03T05:21:59.125Z,84.10
2017-11-03T05:24:26.691Z,83.50
2017-11-03T05:26:54.157Z,83.20
2017-11-03T05:29:21.611Z,83.40
2017-11-03T05:31:49.891Z,82.70
2017-11-03T05:34:18.186Z,82.00
2017-11-03T05:36:45.608Z,82.00
2017-11-03T05:39:13.103Z,83.00
2017-11-03T05:41:40.556Z,83.60
2017-11-03T05:44:08.052Z,83.80
2017-11-03T05:46:36.314Z,85.00
2017-11-03T05:49:03.798Z,84.90
2017-11-03T05:51:32.015Z,83.90
2017-11-03T05:53:59.546Z,83.80
2017-11-03T05:56:27.788Z,82.70
2017-11-03T05:58:55.276Z,82.60
2017-11-03T06:01:23.542Z,82.10
2017-11-03T06:03:51.001Z,82.10
2017-11-03T06:06:18.504Z,81.90
2017-11-03T06:08:45.960Z,82.00
2017-11-03T06:11:13.460Z,82.00
2017-11-03T06:13:40.947Z,82.00
2017-11-03T06:16:08.464Z,82.00
2017-11-03T06:18:36.082Z,82.00
2017-11-03T06:21:03.580Z,81.80
2017-11-03T06:23:31.068Z,82.30
2017-11-03T06:25:58.534Z,82.30
2017-11-03T06:28:25.990Z,81.90
2017-11-03T06:30:53.472Z,82.00
2017-11-03T06:33:20.971Z,81.50
2017-11-03T06:35:48.512Z,82.10
2017-11-03T06:38:15.921Z,82.10
2017-11-03T06:40:43.457Z,82.00
2017-11-03T06:43:10.892Z,81.70
2017-11-03T06:45:38.417Z,81.90
2017-11-03T06:48:05.908Z,81.90
2017-11-03T06:50:33.389Z,81.80
2017-11-03T06:53:00.865Z,81.70
2017-11-03T06:55:28.349Z,81.80
2017-11-03T06:57:56.684Z,81.80
2017-11-03T07:00:24.167Z,81.70
2017-11-03T07:02:51.690Z,81.50
2017-11-03T07:05:19.163Z,81.20
2017-11-03T07:07:46.679Z,81.80
2017-11-03T07:10:14.140Z,82.00
2017-11-03T07:12:42.449Z,81.80
2017-11-03T07:15:09.914Z,81.80
2017-11-03T07:17:37.412Z,81.50
2017-11-03T07:20:04.916Z,81.60
2017-11-03T07:22:32.404Z,81.70
2017-11-03T07:24:59.862Z,81.60
2017-11-03T07:27:27.390Z,82.00
2017-11-03T07:29:54.841Z,81.60
2017-11-03T07:32:22.477Z,81.60
2017-11-03T07:34:50.695Z,81.30
2017-11-03T07:37:19.016Z,81.30
2017-11-03T07:39:46.494Z,81.30
2017-11-03T07:42:14.001Z,81.30
2017-11-03T07:44:42.266Z,81.90
2017-11-03T07:47:09.740Z,81.70
2017-11-03T07:49:37.265Z,81.30
2017-11-03T07:52:04.733Z,81.30
2017-11-03T07:54:32.231Z,81.20
2017-11-03T07:56:59.726Z,80.80
2017-11-03T07:59:27.232Z,80.30
2017-11-03T08:01:54.713Z,80.30
2017-11-03T08:04:22.200Z,81.10
2017-11-03T08:06:50.457Z,80.00
2017-11-03T08:09:18.024Z,80.00
2017-11-03T08:11:45.442Z,80.40
2017-11-03T08:14:12.917Z,79.50
2017-11-03T08:16:40.569Z,79.30
2017-11-03T08:19:08.053Z,79.40
2017-11-03T08:21:35.543Z,79.30
2017-11-03T08:24:03.078Z,79.50
2017-11-03T08:26:30.566Z,79.40
2017-11-03T08:28:58.053Z,79.30
2017-11-03T08:31:27.519Z,79.30
2017-11-03T08:33:54.998Z,79.30
2017-11-03T08:36:22.572Z,79.40
2017-11-03T08:38:50.018Z,79.80
2017-11-03T08:41:18.323Z,80.30
2017-11-03T08:43:45.843Z,80.30
2017-11-03T08:46:13.372Z,80.30
2017-11-03T08:48:40.858Z,80.20
2017-11-03T08:51:08.377Z,79.90
2017-11-03T08:53:36.608Z,80.50
2017-11-03T08:56:04.240Z,80.40
2017-11-03T08:58:31.749Z,80.30
2017-11-03T09:00:59.325Z,79.80
2017-11-03T09:03:26.764Z,79.70
2017-11-03T09:05:55.297Z,80.40
2017-11-03T09:08:22.836Z,80.20
2017-11-03T09:10:50.286Z,79.90
2017-11-03T09:13:17.830Z,78.80
2017-11-03T09:15:45.354Z,79.10
2017-11-03T09:18:13.671Z,78.00
2017-11-03T09:20:41.300Z,78.00
2017-11-03T09:23:09.542Z,78.90
2017-11-03T09:25:37.174Z,78.90
2017-11-03T09:28:04.657Z,77.40
2017-11-03T09:30:32.226Z,78.00
2017-11-03T09:32:59.690Z,77.30
2017-11-03T09:35:27.245Z,77.30
2017-11-03T09:37:54.718Z,77.40
2017-11-03T09:40:22.199Z,77.40
2017-11-03T09:42:49.696Z,77.50
2017-11-03T09:45:17.945Z,76.20
2017-11-03T09:47:45.488Z,76.20
2017-11-03T09:50:13.033Z,75.80
2017-11-03T09:52:40.510Z,76.10
2017-11-03T09:55:08.019Z,75.70
2017-11-03T09:57:36.279Z,76.50
2017-11-03T10:00:03.838Z,76.10
2017-11-03T10:02:31.285Z,76.10
2017-11-03T10:04:58.797Z,76.40
2017-11-03T10:07:26.256Z,75.80
2017-11-03T10:09:54.530Z,74.50
2017-11-03T10:12:22.777Z,75.20
2017-11-03T10:14:50.244Z,75.20
2017-11-03T10:17:17.793Z,74.70
2017-11-03T10:19:45.252Z,73.00
2017-11-03T10:22:12.792Z,73.00
2017-11-03T10:24:40.259Z,73.00
2017-11-03T10:27:08.463Z,72.60
2017-11-03T10:29:36.154Z,72.60
2017-11-03T10:32:03.604Z,73.00
2017-11-03T10:34:31.135Z,72.50
2017-11-03T10:36:58.614Z,72.20
2017-11-03T10:39:26.079Z,71.50
2017-11-03T10:41:53.573Z,72.50
2017-11-03T10:44:21.131Z,71.80
2017-11-03T10:46:48.651Z,71.90
2017-11-03T10:49:16.248Z,71.10
2017-11-03T10:51:43.798Z,70.90
2017-11-03T10:54:11.301Z,71.50
2017-11-03T10:56:39.527Z,71.00
2017-11-03T10:59:07.032Z,70.20
2017-11-03T11:01:34.585Z,71.50
2017-11-03T11:04:02.040Z,71.40
2017-11-03T11:06:29.511Z,71.20
2017-11-03T11:08:56.987Z,71.90
2017-11-03T11:11:24.587Z,71.60
2017-11-03T11:13:52.074Z,72.30
2017-11-03T11:16:19.596Z,72.60
2017-11-03T11:18:47.076Z,72.00
2017-11-03T11:21:14.546Z,70.80
2017-11-03T11:23:42.043Z,71.40
2017-11-03T11:26:09.513Z,71.40
2017-11-03T11:28:37.001Z,72.00
2017-11-03T11:31:04.452Z,72.10
2017-11-03T11:33:31.945Z,72.90
2017-11-03T11:35:59.443Z,72.00
2017-11-03T11:38:26.945Z,71.20
2017-11-03T11:40:54.483Z,71.40
2017-11-03T11:43:21.962Z,71.40
2017-11-03T11:45:49.469Z,70.60
2017-11-03T11:48:16.996Z,70.30
2017-11-03T11:50:44.495Z,71.20
2017-11-03T11:53:12.033Z,69.90
2017-11-03T11:55:40.414Z,70.30
2017-11-03T11:58:07.911Z,70.20
2017-11-03T12:00:35.400Z,69.10
2017-11-03T12:03:02.905Z,69.20
2017-11-03T12:05:30.407Z,70.40
2017-11-03T12:07:57.917Z,70.00
2017-11-03T12:10:25.436Z,70.00
2017-11-03T12:12:52.925Z,69.10
2017-11-03T12:15:20.425Z,69.40
2017-11-03T12:17:48.128Z,68.80
2017-11-03T12:20:15.693Z,69.00
2017-11-03T12:22:43.135Z,69.40
2017-11-03T12:25:10.664Z,68.00
2017-11-03T12:27:38.173Z,68.60
2017-11-03T12:30:05.690Z,67.00
2017-11-03T12:32:33.181Z,67.70
2017-11-03T12:35:01.441Z,67.90
2017-11-03T12:37:28.944Z,67.90
2017-11-03T12:39:56.422Z,68.40
2017-11-03T12:42:23.972Z,68.40
2017-11-03T12:44:51.469Z,68.00
2017-11-03T12:47:18.964Z,69.00
2017-11-03T12:49:47.228Z,68.50
2017-11-03T12:52:14.770Z,68.50
2017-11-03T12:54:42.241Z,68.50
2017-11-03T12:57:09.748Z,68.10
2017-11-03T12:59:37.982Z,68.80
2017-11-03T13:02:05.502Z,68.60
2017-11-03T13:04:33.008Z,68.50
2017-11-03T13:07:00.485Z,67.80
2017-11-03T13:09:27.953Z,68.10
2017-11-03T13:11:56.922Z,68.60
2017-11-03T13:14:24.456Z,68.50
2017-11-03T13:16:51.928Z,67.90
2017-11-03T13:19:19.469Z,68.50
2017-11-03T13:21:46.958Z,68.50
2017-11-03T13:24:14.435Z,67.90
2017-11-03T13:26:41.982Z,68.50
2017-11-03T13:29:10.350Z,67.80
2017-11-03T13:31:37.842Z,67.80
2017-11-03T13:34:05.328Z,68.00
2017-11-03T13:36:32.853Z,67.50
2017-11-03T13:39:00.433Z,67.70
2017-11-03T13:41:29.554Z,69.10
2017-11-03T13:43:57.016Z,68.20
2017-11-03T13:46:24.619Z,67.80
2017-11-03T13:48:52.036Z,66.60
2017-11-03T13:51:19.638Z,66.80
2017-11-03T13:53:47.100Z,66.80
2017-11-03T13:56:15.386Z,66.20
2017-11-03T13:58:43.704Z,66.50
2017-11-03T14:01:11.243Z,66.40
2017-11-03T14:03:38.806Z,65.60
2017-11-03T14:06:06.252Z,65.30
2017-11-03T14:08:33.704Z,65.50
2017-11-03T14:11:01.312Z,64.90
2017-11-03T14:13:28.750Z,64.90
2017-11-03T14:15:57.047Z,64.70
2017-11-03T14:18:24.551Z,64.70
2017-11-03T14:20:52.025Z,64.20
2017-11-03T14:23:19.549Z,63.40
2017-11-03T14:25:47.006Z,63.80
2017-11-03T14:28:14.630Z,62.70
2017-11-03T14:30:42.090Z,62.10
2017-11-03T14:33:09.604Z,62.10
2017-11-03T14:35:37.069Z,62.30
2017-11-03T14:38:04.606Z,61.60
2017-11-03T14:40:32.099Z,60.80
2017-11-03T14:42:59.629Z,61.40
2017-11-03T14:45:27.912Z,60.00
2017-11-03T14:47:55.419Z,60.00
2017-11-03T14:50:22.858Z,60.20
2017-11-03T14:52:50.351Z,59.60
2017-11-03T14:55:17.842Z,59.50
2017-11-03T14:57:45.355Z,60.10
2017-11-03T15:00:13.001Z,59.10
2017-11-03T15:02:40.510Z,58.60
2017-11-03T15:05:08.011Z,59.10
2017-11-03T15:07:36.264Z,60.20
2017-11-03T15:10:03.739Z,59.50
2017-11-03T15:12:31.383Z,60.10
2017-11-03T15:14:58.867Z,59.30
2017-11-03T15:17:26.446Z,59.90
2017-11-03T15:19:54.727Z,60.00
2017-11-03T15:22:23.027Z,60.00
2017-11-03T15:24:50.543Z,60.70
2017-11-03T15:27:18.192Z,60.40
2017-11-03T15:29:45.630Z,60.40
2017-11-03T15:32:14.022Z,60.20
2017-11-03T15:34:41.519Z,60.80
2017-11-03T15:37:09.080Z,60.40
2017-11-03T15:39:36.555Z,61.20
2017-11-03T15:42:04.841Z,61.40
2017-11-03T15:44:32.319Z,61.40
2017-11-03T15:47:00.836Z,61.60
2017-11-03T15:49:28.249Z,61.50
2017-11-03T15:51:55.763Z,61.70
2017-11-03T15:54:23.227Z,61.70
2017-11-03T15:56:50.709Z,61.90
2017-11-03T15:59:18.220Z,62.00
2017-11-03T16:01:46.491Z,62.10
2017-11-03T16:04:14.020Z,62.00
2017-11-03T16:06:41.613Z,62.20
2017-11-03T16:09:09.107Z,62.50
2017-11-03T16:11:36.664Z,62.30
2017-11-03T16:14:04.129Z,62.40
2017-11-03T16:16:31.673Z,62.50
2017-11-03T16:18:59.299Z,62.50
2017-11-03T16:21:27.653Z,62.70
2017-11-03T16:23:55.181Z,62.60
2017-11-03T16:26:22.643Z,62.80
2017-11-03T16:28:50.112Z,62.80
2017-11-03T16:31:18.380Z,63.20
2017-11-03T16:33:45.855Z,63.10
2017-11-03T16:36:14.087Z,63.50
2017-11-03T16:38:41.589Z,63.40
2017-11-03T16:41:09.957Z,63.60
2017-11-03T16:43:37.483Z,63.80
2017-11-03T16:46:04.974Z,63.80
2017-11-03T16:48:33.186Z,64.00
2017-11-03T16:51:00.682Z,63.90
2017-11-03T16:53:28.220Z,63.90
2017-11-03T16:55:56.439Z,64.40
2017-11-03T16:58:23.941Z,64.40
2017-11-03T17:00:51.425Z,64.40
2017-11-03T17:03:19.705Z,64.50
2017-11-03T17:05:47.989Z,64.40
2017-11-03T17:08:15.459Z,64.30
2017-11-03T17:10:43.677Z,64.20
2017-11-03T17:13:11.214Z,64.20
2017-11-03T17:15:38.696Z,64.10
2017-11-03T17:18:06.247Z,64.20
2017-11-03T17:20:33.737Z,64.20
2017-11-03T17:23:01.247Z,64.10
2017-11-03T17:25:29.510Z,64.20
2017-11-03T17:27:57.016Z,64.80
2017-11-03T17:30:24.511Z,64.10
2017-11-03T17:32:51.939Z,64.20
2017-11-03T17:35:19.441Z,64.00
2017-11-03T17:37:46.966Z,64.20
2017-11-03T17:40:14.800Z,64.20
2017-11-03T17:42:42.192Z,64.10
2017-11-03T17:45:09.696Z,64.00
2017-11-03T17:47:37.197Z,64.10
2017-11-03T17:50:05.474Z,64.10
2017-11-03T17:52:33.712Z,64.10
2017-11-03T17:55:01.216Z,64.10
2017-11-03T17:57:29.468Z,64.20
2017-11-03T17:59:56.944Z,64.20
2017-11-03T18:02:24.469Z,64.20
2017-11-03T18:04:52.202Z,64.00
2017-11-03T18:07:20.472Z,64.10
2017-11-03T18:09:51.059Z,64.10
2017-11-03T18:12:18.552Z,63.90
2017-11-03T18:14:46.093Z,63.80
2017-11-03T18:17:13.590Z,63.90
2017-11-03T18:19:41.121Z,63.80
2017-11-03T18:22:08.556Z,63.70
2017-11-03T18:24:36.077Z,63.40
2017-11-03T18:27:04.329Z,63.30
2017-11-03T18:29:31.817Z,63.30
2017-11-03T18:31:59.339Z,63.40
2017-11-03T18:34:26.826Z,63.40
2017-11-03T18:36:54.300Z,63.30
2017-11-03T18:39:21.819Z,63.50
2017-11-03T18:41:49.289Z,63.30
2017-11-03T18:44:17.490Z,63.90
2017-11-03T18:46:45.017Z,63.90
2017-11-03T18:49:12.507Z,64.00
2017-11-03T18:51:40.810Z,64.50
2017-11-03T18:54:08.275Z,64.50
2017-11-03T18:56:35.776Z,64.90
2017-11-03T18:59:03.580Z,65.00
2017-11-03T19:01:31.054Z,64.90
2017-11-03T19:03:58.548Z,64.90
2017-11-03T19:06:26.063Z,65.00
2017-11-03T19:08:53.590Z,65.50
2017-11-03T19:11:21.848Z,65.40
2017-11-03T19:13:49.356Z,65.40
2017-11-03T19:16:17.028Z,65.30
2017-11-03T19:18:44.509Z,65.40
2017-11-03T19:21:12.008Z,65.50
2017-11-03T19:23:40.311Z,66.20
2017-11-03T19:26:08.585Z,65.60
2017-11-03T19:28:36.818Z,65.60
2017-11-03T19:31:04.319Z,65.60
2017-11-03T19:33:32.571Z,65.80
2017-11-03T19:36:00.097Z,65.80
2017-11-03T19:38:27.586Z,65.80
2017-11-03T19:40:55.052Z,65.70
2017-11-03T19:43:22.576Z,65.80
2017-11-03T19:45:50.068Z,65.60
2017-11-03T19:48:18.316Z,65.80
2017-11-03T19:50:45.809Z,65.90
2017-11-03T19:53:13.301Z,65.80
2017-11-03T19:55:42.339Z,65.70
2017-11-03T19:58:09.865Z,65.80
2017-11-03T20:00:37.367Z,66.00
2017-11-03T20:03:05.694Z,66.00
2017-11-03T20:05:33.975Z,66.20
2017-11-03T20:08:01.402Z,66.20
2017-11-03T20:10:29.060Z,65.90
2017-11-03T20:12:56.575Z,65.80
2017-11-03T20:15:24.079Z,66.00
2017-11-03T20:17:51.660Z,66.10
2017-11-03T20:20:19.214Z,66.60
2017-11-03T20:22:46.700Z,66.60
2017-11-03T20:25:14.245Z,66.60
2017-11-03T20:27:41.716Z,66.80
2017-11-03T20:30:09.221Z,66.80
2017-11-03T20:32:36.640Z,67.50
2017-11-03T20:35:04.137Z,67.30
2017-11-03T20:37:31.648Z,67.50
2017-11-03T20:39:59.855Z,68.10
2017-11-03T20:42:27.421Z,68.00
2017-11-03T20:44:54.917Z,67.70
2017-11-03T20:47:22.569Z,67.60
2017-11-03T20:49:50.027Z,67.70
2017-11-03T20:52:17.633Z,67.40
2017-11-03T20:54:45.875Z,67.20
2017-11-03T20:57:13.341Z,67.20
2017-11-03T20:59:40.892Z,67.60
2017-11-03T21:02:09.176Z,68.10
2017-11-03T21:04:36.657Z,68.10
2017-11-03T21:07:04.152Z,68.20
2017-11-03T21:09:31.671Z,68.30
2017-11-03T21:11:59.184Z,68.10
2017-11-03T21:14:26.722Z,67.90
2017-11-03T21:16:54.391Z,68.00
2017-11-03T21:19:21.881Z,68.00
2017-11-03T21:21:50.145Z,68.10
2017-11-03T21:24:17.719Z,68.10
2017-11-03T21:26:45.158Z,68.20
2017-11-03T21:29:12.701Z,68.40
2017-11-03T21:31:40.185Z,68.70
2017-11-03T21:34:07.738Z,68.20
2017-11-03T21:36:36.130Z,67.90
2017-11-03T21:39:03.582Z,68.10
2017-11-03T21:41:31.082Z,68.10
2017-11-03T21:43:59.321Z,69.50
2017-11-03T21:46:26.777Z,69.40
2017-11-03T21:48:54.358Z,69.50
2017-11-03T21:51:22.559Z,68.70
2017-11-03T21:53:50.057Z,68.70
2017-11-03T21:56:18.315Z,68.90
2017-11-03T21:58:46.571Z,70.00
2017-11-03T22:01:14.016Z,69.80
2017-11-03T22:03:41.519Z,71.10
2017-11-03T22:06:09.784Z,70.60
2017-11-03T22:08:37.324Z,70.60
2017-11-03T22:11:04.787Z,70.60
2017-11-03T22:13:32.277Z,70.30
2017-11-03T22:16:00.492Z,70.20
2017-11-03T22:18:27.989Z,70.10
2017-11-03T22:20:55.450Z,70.10
2017-11-03T22:23:22.929Z,70.00
2017-11-03T22:25:50.355Z,69.50
2017-11-03T22:28:17.820Z,69.40
2017-11-03T22:30:46.084Z,69.30
2017-11-03T22:33:13.615Z,69.30
2017-11-03T22:35:41.074Z,69.50
2017-11-03T22:38:08.544Z,69.30
2017-11-03T22:40:36.796Z,69.20
2017-11-03T22:43:04.370Z,69.10
2017-11-03T22:45:31.826Z,69.80
2017-11-03T22:47:59.336Z,69.80
2017-11-03T22:50:26.900Z,69.60
2017-11-03T22:52:55.178Z,69.80
2017-11-03T22:55:22.667Z,69.70
2017-11-03T22:57:50.205Z,69.50
2017-11-03T23:00:18.425Z,70.00
2017-11-03T23:02:45.892Z,70.00
2017-11-03T23:05:13.394Z,69.60
2017-11-03T23:07:41.627Z,69.40
2017-11-03T23:10:09.101Z,69.40
2017-11-03T23:12:36.602Z,69.40
2017-11-03T23:15:04.877Z,69.20
2017-11-03T23:17:33.120Z,69.10
2017-11-03T23:20:00.570Z,69.10
2017-11-03T23:22:28.081Z,69.10
2017-11-03T23:24:56.302Z,69.10
2017-11-03T23:27:23.831Z,69.10
2017-11-03T23:29:51.268Z,69.40
2017-11-03T23:32:18.815Z,68.90
2017-11-03T23:34:46.255Z,68.60
2017-11-03T23:37:13.815Z,69.00
2017-11-03T23:39:41.252Z,68.60
2017-11-03T23:42:08.745Z,68.50
2017-11-03T23:44:36.210Z,68.70
2017-11-03T23:47:03.718Z,68.70
2017-11-03T23:49:31.221Z,68.80
2017-11-03T23:51:58.736Z,68.30
2017-11-03T23:54:26.342Z,68.40
2017-11-03T23:56:53.857Z,68.50
2017-11-03T23:59:21.307Z,68.60
